sensor_id;sensor_type;location;lat;lon;timestamp;P1;durP1;ratioP1;P2;durP2;ratioP2
25419;SDS011;13354;48.174;11.566;2023-08-30T00:00:16;15.18;;;13.77;;
25419;SDS011;13354;48.174;11.566;2023-08-30T00:02:42;15.38;;;13.93;;
25419;SDS011;13354;48.174;11.566;2023-08-30T00:05:10;15.57;;;14.07;;
25419;SDS011;13354;48.174;11.566;2023-08-30T00:07:36;15.10;;;13.70;;
25419;SDS011;13354;48.174;11.566;2023-08-30T00:10:02;15.20;;;13.70;;
25419;SDS011;13354;48.174;11.566;2023-08-30T00:12:28;15.73;;;14.13;;
25419;SDS011;13354;48.174;11.566;2023-08-30T00:14:54;15.93;;;14.32;;
25419;SDS011;13354;48.174;11.566;2023-08-30T00:17:20;15.07;;;13.68;;
25419;SDS011;13354;48.174;11.566;2023-08-30T00:19:45;15.43;;;13.77;;
25419;SDS011;13354;48.174;11.566;2023-08-30T00:22:11;17.08;;;15.38;;
25419;SDS011;13354;48.174;11.566;2023-08-30T00:24:37;15.90;;;14.30;;
25419;SDS011;13354;48.174;11.566;2023-08-30T00:27:03;15.85;;;14.25;;
25419;SDS011;13354;48.174;11.566;2023-08-30T00:29:28;16.40;;;14.80;;
25419;SDS011;13354;48.174;11.566;2023-08-30T00:31:54;17.67;;;15.88;;
25419;SDS011;13354;48.174;11.566;2023-08-30T00:34:20;17.48;;;15.77;;
25419;SDS011;13354;48.174;11.566;2023-08-30T00:36:45;17.40;;;15.60;;
25419;SDS011;13354;48.174;11.566;2023-08-30T00:39:11;16.60;;;14.90;;
25419;SDS011;13354;48.174;11.566;2023-08-30T00:41:36;16.55;;;14.98;;
25419;SDS011;13354;48.174;11.566;2023-08-30T00:44:01;15.27;;;13.80;;
25419;SDS011;13354;48.174;11.566;2023-08-30T00:46:27;17.17;;;13.82;;
25419;SDS011;13354;48.174;11.566;2023-08-30T00:48:53;15.77;;;14.27;;
25419;SDS011;13354;48.174;11.566;2023-08-30T00:51:18;15.13;;;13.45;;
25419;SDS011;13354;48.174;11.566;2023-08-30T00:53:44;17.70;;;15.80;;
25419;SDS011;13354;48.174;11.566;2023-08-30T00:56:10;16.58;;;14.90;;
25419;SDS011;13354;48.174;11.566;2023-08-30T00:58:36;16.45;;;14.82;;
25419;SDS011;13354;48.174;11.566;2023-08-30T01:01:03;16.48;;;14.77;;
25419;SDS011;13354;48.174;11.566;2023-08-30T01:03:32;15.65;;;14.05;;
25419;SDS011;13354;48.174;11.566;2023-08-30T01:05:57;15.45;;;13.85;;
25419;SDS011;13354;48.174;11.566;2023-08-30T01:08:22;15.90;;;14.40;;
25419;SDS011;13354;48.174;11.566;2023-08-30T01:13:33;14.77;;;13.27;;
25419;SDS011;13354;48.174;11.566;2023-08-30T01:16:05;14.48;;;13.02;;
25419;SDS011;13354;48.174;11.566;2023-08-30T01:18:32;15.88;;;14.27;;
25419;SDS011;13354;48.174;11.566;2023-08-30T01:21:01;16.15;;;14.55;;
25419;SDS011;13354;48.174;11.566;2023-08-30T01:23:48;16.42;;;14.43;;
25419;SDS011;13354;48.174;11.566;2023-08-30T01:29:02;15.43;;;13.85;;
25419;SDS011;13354;48.174;11.566;2023-08-30T01:31:29;16.00;;;13.48;;
25419;SDS011;13354;48.174;11.566;2023-08-30T01:33:58;14.75;;;13.25;;
25419;SDS011;13354;48.174;11.566;2023-08-30T01:36:24;14.73;;;13.32;;
25419;SDS011;13354;48.174;11.566;2023-08-30T01:38:50;13.93;;;12.57;;
25419;SDS011;13354;48.174;11.566;2023-08-30T01:41:16;14.80;;;13.30;;
25419;SDS011;13354;48.174;11.566;2023-08-30T01:43:42;14.93;;;13.43;;
25419;SDS011;13354;48.174;11.566;2023-08-30T01:46:09;14.43;;;12.93;;
25419;SDS011;13354;48.174;11.566;2023-08-30T01:48:35;14.50;;;13.00;;
25419;SDS011;13354;48.174;11.566;2023-08-30T01:51:01;14.13;;;12.73;;
25419;SDS011;13354;48.174;11.566;2023-08-30T01:53:27;14.38;;;12.98;;
25419;SDS011;13354;48.174;11.566;2023-08-30T01:55:53;15.25;;;13.75;;
25419;SDS011;13354;48.174;11.566;2023-08-30T01:58:19;14.30;;;12.90;;
25419;SDS011;13354;48.174;11.566;2023-08-30T02:00:45;14.80;;;13.30;;
25419;SDS011;13354;48.174;11.566;2023-08-30T02:03:11;15.73;;;13.07;;
25419;SDS011;13354;48.174;11.566;2023-08-30T02:05:39;14.15;;;12.75;;
25419;SDS011;13354;48.174;11.566;2023-08-30T02:08:14;13.48;;;12.13;;
25419;SDS011;13354;48.174;11.566;2023-08-30T02:10:42;14.45;;;12.90;;
25419;SDS011;13354;48.174;11.566;2023-08-30T02:13:16;14.30;;;12.90;;
25419;SDS011;13354;48.174;11.566;2023-08-30T02:15:46;13.68;;;12.25;;
25419;SDS011;13354;48.174;11.566;2023-08-30T02:18:13;12.68;;;11.55;;
25419;SDS011;13354;48.174;11.566;2023-08-30T02:20:38;13.40;;;12.02;;
25419;SDS011;13354;48.174;11.566;2023-08-30T02:23:03;13.63;;;12.32;;
25419;SDS011;13354;48.174;11.566;2023-08-30T02:25:29;13.18;;;11.88;;
25419;SDS011;13354;48.174;11.566;2023-08-30T02:27:54;13.70;;;12.30;;
25419;SDS011;13354;48.174;11.566;2023-08-30T02:30:19;11.85;;;10.70;;
25419;SDS011;13354;48.174;11.566;2023-08-30T02:32:45;12.60;;;11.30;;
25419;SDS011;13354;48.174;11.566;2023-08-30T02:35:10;12.32;;;11.13;;
25419;SDS011;13354;48.174;11.566;2023-08-30T02:37:35;12.20;;;11.00;;
25419;SDS011;13354;48.174;11.566;2023-08-30T02:40:02;12.55;;;11.27;;
25419;SDS011;13354;48.174;11.566;2023-08-30T02:42:27;12.95;;;11.65;;
25419;SDS011;13354;48.174;11.566;2023-08-30T02:44:53;12.88;;;11.57;;
25419;SDS011;13354;48.174;11.566;2023-08-30T02:47:18;12.63;;;11.43;;
25419;SDS011;13354;48.174;11.566;2023-08-30T02:49:44;11.75;;;10.65;;
25419;SDS011;13354;48.174;11.566;2023-08-30T02:52:09;11.90;;;10.70;;
25419;SDS011;13354;48.174;11.566;2023-08-30T02:54:34;11.52;;;10.32;;
25419;SDS011;13354;48.174;11.566;2023-08-30T02:56:59;12.00;;;10.90;;
25419;SDS011;13354;48.174;11.566;2023-08-30T02:59:25;11.10;;;10.00;;
25419;SDS011;13354;48.174;11.566;2023-08-30T03:01:50;11.57;;;10.33;;
25419;SDS011;13354;48.174;11.566;2023-08-30T03:04:15;12.85;;;10.93;;
25419;SDS011;13354;48.174;11.566;2023-08-30T03:06:41;12.65;;;11.45;;
25419;SDS011;13354;48.174;11.566;2023-08-30T03:09:06;13.18;;;11.88;;
25419;SDS011;13354;48.174;11.566;2023-08-30T03:11:32;11.60;;;10.52;;
25419;SDS011;13354;48.174;11.566;2023-08-30T03:13:58;12.82;;;11.48;;
25419;SDS011;13354;48.174;11.566;2023-08-30T03:16:23;12.07;;;10.88;;
25419;SDS011;13354;48.174;11.566;2023-08-30T03:18:49;11.52;;;10.52;;
25419;SDS011;13354;48.174;11.566;2023-08-30T03:21:15;12.40;;;11.20;;
25419;SDS011;13354;48.174;11.566;2023-08-30T03:23:40;12.75;;;11.50;;
25419;SDS011;13354;48.174;11.566;2023-08-30T03:26:13;12.25;;;11.05;;
25419;SDS011;13354;48.174;11.566;2023-08-30T03:28:39;12.20;;;11.07;;
25419;SDS011;13354;48.174;11.566;2023-08-30T03:33:38;12.70;;;11.20;;
25419;SDS011;13354;48.174;11.566;2023-08-30T03:36:03;13.13;;;11.88;;
25419;SDS011;13354;48.174;11.566;2023-08-30T03:38:29;12.38;;;11.18;;
25419;SDS011;13354;48.174;11.566;2023-08-30T03:40:54;11.93;;;10.73;;
25419;SDS011;13354;48.174;11.566;2023-08-30T03:43:19;12.95;;;11.13;;
25419;SDS011;13354;48.174;11.566;2023-08-30T03:45:45;11.10;;;9.70;;
25419;SDS011;13354;48.174;11.566;2023-08-30T03:48:11;10.63;;;9.73;;
25419;SDS011;13354;48.174;11.566;2023-08-30T03:50:36;11.07;;;10.05;;
25419;SDS011;13354;48.174;11.566;2023-08-30T03:53:01;10.30;;;9.30;;
25419;SDS011;13354;48.174;11.566;2023-08-30T03:55:27;11.23;;;9.93;;
25419;SDS011;13354;48.174;11.566;2023-08-30T03:57:52;10.88;;;9.70;;
25419;SDS011;13354;48.174;11.566;2023-08-30T04:00:17;11.73;;;10.63;;
25419;SDS011;13354;48.174;11.566;2023-08-30T04:02:42;11.05;;;10.02;;
25419;SDS011;13354;48.174;11.566;2023-08-30T04:05:09;11.65;;;10.18;;
25419;SDS011;13354;48.174;11.566;2023-08-30T04:07:37;11.35;;;10.13;;
25419;SDS011;13354;48.174;11.566;2023-08-30T04:10:03;10.63;;;9.63;;
25419;SDS011;13354;48.174;11.566;2023-08-30T04:12:32;10.15;;;9.23;;
25419;SDS011;13354;48.174;11.566;2023-08-30T04:14:57;10.77;;;9.75;;
25419;SDS011;13354;48.174;11.566;2023-08-30T04:17:23;9.98;;;9.07;;
25419;SDS011;13354;48.174;11.566;2023-08-30T04:19:51;12.18;;;10.32;;
25419;SDS011;13354;48.174;11.566;2023-08-30T04:22:16;11.60;;;10.45;;
25419;SDS011;13354;48.174;11.566;2023-08-30T04:24:42;12.85;;;10.60;;
25419;SDS011;13354;48.174;11.566;2023-08-30T04:27:07;10.50;;;9.50;;
25419;SDS011;13354;48.174;11.566;2023-08-30T04:29:32;11.00;;;10.00;;
25419;SDS011;13354;48.174;11.566;2023-08-30T04:31:58;10.70;;;9.48;;
25419;SDS011;13354;48.174;11.566;2023-08-30T04:34:23;10.65;;;9.65;;
25419;SDS011;13354;48.174;11.566;2023-08-30T04:36:48;10.65;;;9.43;;
25419;SDS011;13354;48.174;11.566;2023-08-30T04:39:13;11.75;;;10.55;;
25419;SDS011;13354;48.174;11.566;2023-08-30T04:41:39;10.65;;;9.65;;
25419;SDS011;13354;48.174;11.566;2023-08-30T04:44:04;11.40;;;10.13;;
25419;SDS011;13354;48.174;11.566;2023-08-30T04:46:29;11.68;;;10.57;;
25419;SDS011;13354;48.174;11.566;2023-08-30T04:48:55;13.67;;;9.77;;
25419;SDS011;13354;48.174;11.566;2023-08-30T04:51:20;11.85;;;10.52;;
25419;SDS011;13354;48.174;11.566;2023-08-30T04:53:45;10.05;;;9.05;;
25419;SDS011;13354;48.174;11.566;2023-08-30T04:56:13;9.40;;;8.50;;
25419;SDS011;13354;48.174;11.566;2023-08-30T04:58:39;9.73;;;8.73;;
25419;SDS011;13354;48.174;11.566;2023-08-30T05:01:05;10.63;;;9.18;;
25419;SDS011;13354;48.174;11.566;2023-08-30T05:03:31;10.80;;;9.75;;
25419;SDS011;13354;48.174;11.566;2023-08-30T05:05:57;11.15;;;10.00;;
25419;SDS011;13354;48.174;11.566;2023-08-30T05:08:22;11.25;;;10.15;;
25419;SDS011;13354;48.174;11.566;2023-08-30T05:10:47;11.63;;;9.73;;
25419;SDS011;13354;48.174;11.566;2023-08-30T05:13:15;9.93;;;9.05;;
25419;SDS011;13354;48.174;11.566;2023-08-30T05:15:41;11.73;;;10.52;;
25419;SDS011;13354;48.174;11.566;2023-08-30T05:18:06;11.32;;;9.48;;
25419;SDS011;13354;48.174;11.566;2023-08-30T05:20:31;10.45;;;8.55;;
25419;SDS011;13354;48.174;11.566;2023-08-30T05:22:57;10.93;;;9.82;;
25419;SDS011;13354;48.174;11.566;2023-08-30T05:25:22;11.25;;;10.02;;
25419;SDS011;13354;48.174;11.566;2023-08-30T05:27:48;11.48;;;10.38;;
25419;SDS011;13354;48.174;11.566;2023-08-30T05:30:13;11.10;;;10.10;;
25419;SDS011;13354;48.174;11.566;2023-08-30T05:32:38;9.40;;;8.60;;
25419;SDS011;13354;48.174;11.566;2023-08-30T05:35:04;10.75;;;9.65;;
25419;SDS011;13354;48.174;11.566;2023-08-30T05:37:29;9.20;;;8.40;;
25419;SDS011;13354;48.174;11.566;2023-08-30T05:39:56;9.70;;;8.80;;
25419;SDS011;13354;48.174;11.566;2023-08-30T05:42:22;11.05;;;9.68;;
25419;SDS011;13354;48.174;11.566;2023-08-30T05:44:47;9.30;;;8.50;;
25419;SDS011;13354;48.174;11.566;2023-08-30T05:47:13;9.48;;;8.57;;
25419;SDS011;13354;48.174;11.566;2023-08-30T05:49:40;9.48;;;8.57;;
25419;SDS011;13354;48.174;11.566;2023-08-30T05:52:05;10.60;;;9.60;;
25419;SDS011;13354;48.174;11.566;2023-08-30T05:54:31;10.65;;;9.55;;
25419;SDS011;13354;48.174;11.566;2023-08-30T05:56:58;10.90;;;9.80;;
25419;SDS011;13354;48.174;11.566;2023-08-30T05:59:24;10.23;;;9.13;;
25419;SDS011;13354;48.174;11.566;2023-08-30T06:01:49;10.57;;;9.05;;
25419;SDS011;13354;48.174;11.566;2023-08-30T06:04:14;9.10;;;8.30;;
25419;SDS011;13354;48.174;11.566;2023-08-30T06:06:40;9.25;;;8.35;;
25419;SDS011;13354;48.174;11.566;2023-08-30T06:09:05;9.60;;;8.60;;
25419;SDS011;13354;48.174;11.566;2023-08-30T06:11:30;10.05;;;9.05;;
25419;SDS011;13354;48.174;11.566;2023-08-30T06:13:57;9.27;;;8.35;;
25419;SDS011;13354;48.174;11.566;2023-08-30T06:16:24;9.07;;;8.18;;
25419;SDS011;13354;48.174;11.566;2023-08-30T06:18:49;8.50;;;7.68;;
25419;SDS011;13354;48.174;11.566;2023-08-30T06:21:14;9.70;;;8.75;;
25419;SDS011;13354;48.174;11.566;2023-08-30T06:23:40;8.67;;;7.87;;
25419;SDS011;13354;48.174;11.566;2023-08-30T06:26:05;8.05;;;7.35;;
25419;SDS011;13354;48.174;11.566;2023-08-30T06:28:30;8.48;;;7.68;;
25419;SDS011;13354;48.174;11.566;2023-08-30T06:30:56;9.57;;;7.82;;
25419;SDS011;13354;48.174;11.566;2023-08-30T06:33:22;9.43;;;8.48;;
25419;SDS011;13354;48.174;11.566;2023-08-30T06:35:48;8.70;;;7.90;;
25419;SDS011;13354;48.174;11.566;2023-08-30T06:38:15;10.18;;;8.38;;
25419;SDS011;13354;48.174;11.566;2023-08-30T06:40:46;9.77;;;8.27;;
25419;SDS011;13354;48.174;11.566;2023-08-30T06:43:12;8.88;;;8.07;;
25419;SDS011;13354;48.174;11.566;2023-08-30T06:45:38;9.27;;;8.38;;
25419;SDS011;13354;48.174;11.566;2023-08-30T06:48:05;9.25;;;8.38;;
25419;SDS011;13354;48.174;11.566;2023-08-30T06:50:31;8.80;;;7.93;;
25419;SDS011;13354;48.174;11.566;2023-08-30T06:52:56;9.35;;;8.30;;
25419;SDS011;13354;48.174;11.566;2023-08-30T06:55:21;9.73;;;8.73;;
25419;SDS011;13354;48.174;11.566;2023-08-30T06:57:47;11.50;;;10.40;;
25419;SDS011;13354;48.174;11.566;2023-08-30T07:00:15;9.82;;;8.82;;
25419;SDS011;13354;48.174;11.566;2023-08-30T07:02:40;11.75;;;8.25;;
25419;SDS011;13354;48.174;11.566;2023-08-30T07:05:09;10.32;;;8.88;;
25419;SDS011;13354;48.174;11.566;2023-08-30T07:07:35;9.20;;;8.27;;
25419;SDS011;13354;48.174;11.566;2023-08-30T07:10:00;10.67;;;8.20;;
25419;SDS011;13354;48.174;11.566;2023-08-30T07:12:25;10.20;;;8.77;;
25419;SDS011;13354;48.174;11.566;2023-08-30T07:14:51;9.95;;;8.73;;
25419;SDS011;13354;48.174;11.566;2023-08-30T07:17:16;9.52;;;8.63;;
25419;SDS011;13354;48.174;11.566;2023-08-30T07:19:41;9.68;;;8.73;;
25419;SDS011;13354;48.174;11.566;2023-08-30T07:22:07;12.60;;;11.30;;
25419;SDS011;13354;48.174;11.566;2023-08-30T07:24:32;16.92;;;15.00;;
25419;SDS011;13354;48.174;11.566;2023-08-30T07:26:57;9.45;;;8.65;;
25419;SDS011;13354;48.174;11.566;2023-08-30T07:29:23;9.73;;;8.82;;
25419;SDS011;13354;48.174;11.566;2023-08-30T07:31:48;10.00;;;9.05;;
25419;SDS011;13354;48.174;11.566;2023-08-30T07:34:16;10.13;;;9.23;;
25419;SDS011;13354;48.174;11.566;2023-08-30T07:36:41;10.00;;;9.10;;
25419;SDS011;13354;48.174;11.566;2023-08-30T07:39:07;10.18;;;9.18;;
25419;SDS011;13354;48.174;11.566;2023-08-30T07:41:33;16.65;;;8.38;;
25419;SDS011;13354;48.174;11.566;2023-08-30T07:43:59;10.25;;;9.23;;
25419;SDS011;13354;48.174;11.566;2023-08-30T07:46:24;10.45;;;9.43;;
25419;SDS011;13354;48.174;11.566;2023-08-30T07:48:50;11.57;;;9.55;;
25419;SDS011;13354;48.174;11.566;2023-08-30T07:51:16;10.55;;;9.50;;
25419;SDS011;13354;48.174;11.566;2023-08-30T07:53:41;10.50;;;9.40;;
25419;SDS011;13354;48.174;11.566;2023-08-30T07:56:06;10.65;;;9.65;;
25419;SDS011;13354;48.174;11.566;2023-08-30T07:58:32;10.18;;;9.18;;
25419;SDS011;13354;48.174;11.566;2023-08-30T08:00:57;10.55;;;9.55;;
25419;SDS011;13354;48.174;11.566;2023-08-30T08:03:23;10.50;;;9.55;;
25419;SDS011;13354;48.174;11.566;2023-08-30T08:05:48;12.60;;;11.38;;
25419;SDS011;13354;48.174;11.566;2023-08-30T08:08:14;11.30;;;10.20;;
25419;SDS011;13354;48.174;11.566;2023-08-30T08:10:39;11.20;;;10.13;;
25419;SDS011;13354;48.174;11.566;2023-08-30T08:13:06;10.38;;;9.27;;
25419;SDS011;13354;48.174;11.566;2023-08-30T08:15:32;11.10;;;10.00;;
25419;SDS011;13354;48.174;11.566;2023-08-30T08:17:58;10.32;;;8.98;;
25419;SDS011;13354;48.174;11.566;2023-08-30T08:20:24;10.77;;;9.70;;
25419;SDS011;13354;48.174;11.566;2023-08-30T08:22:49;10.77;;;9.73;;
25419;SDS011;13354;48.174;11.566;2023-08-30T08:25:14;11.07;;;9.85;;
25419;SDS011;13354;48.174;11.566;2023-08-30T08:27:41;10.63;;;9.18;;
25419;SDS011;13354;48.174;11.566;2023-08-30T08:30:06;13.52;;;12.13;;
25419;SDS011;13354;48.174;11.566;2023-08-30T08:32:32;10.18;;;9.18;;
25419;SDS011;13354;48.174;11.566;2023-08-30T08:34:58;10.35;;;9.40;;
25419;SDS011;13354;48.174;11.566;2023-08-30T08:37:23;10.93;;;9.27;;
25419;SDS011;13354;48.174;11.566;2023-08-30T08:39:49;9.73;;;8.82;;
25419;SDS011;13354;48.174;11.566;2023-08-30T08:42:16;10.25;;;9.02;;
25419;SDS011;13354;48.174;11.566;2023-08-30T08:44:43;9.82;;;8.43;;
25419;SDS011;13354;48.174;11.566;2023-08-30T08:47:08;10.18;;;9.18;;
25419;SDS011;13354;48.174;11.566;2023-08-30T08:49:34;11.18;;;10.18;;
25419;SDS011;13354;48.174;11.566;2023-08-30T08:51:59;10.38;;;9.18;;
25419;SDS011;13354;48.174;11.566;2023-08-30T08:54:25;9.52;;;8.60;;
25419;SDS011;13354;48.174;11.566;2023-08-30T08:56:51;11.82;;;10.55;;
25419;SDS011;13354;48.174;11.566;2023-08-30T08:59:18;11.20;;;9.00;;
25419;SDS011;13354;48.174;11.566;2023-08-30T09:01:44;8.75;;;7.95;;
25419;SDS011;13354;48.174;11.566;2023-08-30T09:04:10;9.02;;;8.23;;
25419;SDS011;13354;48.174;11.566;2023-08-30T09:06:37;7.82;;;7.13;;
25419;SDS011;13354;48.174;11.566;2023-08-30T09:09:04;7.53;;;6.82;;
25419;SDS011;13354;48.174;11.566;2023-08-30T09:11:30;7.60;;;6.90;;
25419;SDS011;13354;48.174;11.566;2023-08-30T09:13:56;6.75;;;6.05;;
25419;SDS011;13354;48.174;11.566;2023-08-30T09:16:22;7.55;;;6.85;;
25419;SDS011;13354;48.174;11.566;2023-08-30T09:18:57;7.03;;;6.07;;
25419;SDS011;13354;48.174;11.566;2023-08-30T09:21:29;8.70;;;7.35;;
25419;SDS011;13354;48.174;11.566;2023-08-30T09:24:01;8.02;;;7.22;;
25419;SDS011;13354;48.174;11.566;2023-08-30T09:26:28;5.90;;;5.30;;
25419;SDS011;13354;48.174;11.566;2023-08-30T09:29:03;6.75;;;5.10;;
25419;SDS011;13354;48.174;11.566;2023-08-30T09:31:38;4.63;;;4.22;;
25419;SDS011;13354;48.174;11.566;2023-08-30T09:34:06;6.22;;;3.75;;
25419;SDS011;13354;48.174;11.566;2023-08-30T09:36:35;4.50;;;3.80;;
25419;SDS011;13354;48.174;11.566;2023-08-30T09:39:08;7.22;;;3.80;;
25419;SDS011;13354;48.174;11.566;2023-08-30T09:41:41;6.03;;;3.60;;
25419;SDS011;13354;48.174;11.566;2023-08-30T09:44:13;3.65;;;3.03;;
25419;SDS011;13354;48.174;11.566;2023-08-30T09:49:23;9.20;;;8.15;;
25419;SDS011;13354;48.174;11.566;2023-08-30T09:51:50;3.85;;;3.28;;
25419;SDS011;13354;48.174;11.566;2023-08-30T09:54:20;3.40;;;2.60;;
25419;SDS011;13354;48.174;11.566;2023-08-30T09:56:47;3.75;;;2.03;;
25419;SDS011;13354;48.174;11.566;2023-08-30T09:59:13;3.92;;;2.50;;
25419;SDS011;13354;48.174;11.566;2023-08-30T10:01:42;3.80;;;2.17;;
25419;SDS011;13354;48.174;11.566;2023-08-30T10:04:08;4.63;;;2.60;;
25419;SDS011;13354;48.174;11.566;2023-08-30T10:06:35;2.65;;;2.45;;
25419;SDS011;13354;48.174;11.566;2023-08-30T10:09:02;2.50;;;2.28;;
25419;SDS011;13354;48.174;11.566;2023-08-30T10:11:29;4.47;;;2.47;;
25419;SDS011;13354;48.174;11.566;2023-08-30T10:13:54;3.88;;;2.28;;
25419;SDS011;13354;48.174;11.566;2023-08-30T10:16:20;3.75;;;2.60;;
25419;SDS011;13354;48.174;11.566;2023-08-30T10:18:52;3.25;;;2.13;;
25419;SDS011;13354;48.174;11.566;2023-08-30T10:21:19;3.65;;;2.33;;
25419;SDS011;13354;48.174;11.566;2023-08-30T10:23:46;3.85;;;2.00;;
25419;SDS011;13354;48.174;11.566;2023-08-30T10:26:16;2.90;;;2.15;;
25419;SDS011;13354;48.174;11.566;2023-08-30T10:28:42;3.85;;;2.40;;
25419;SDS011;13354;48.174;11.566;2023-08-30T10:31:09;3.28;;;2.30;;
25419;SDS011;13354;48.174;11.566;2023-08-30T10:33:47;4.78;;;2.20;;
25419;SDS011;13354;48.174;11.566;2023-08-30T10:36:19;3.22;;;2.00;;
25419;SDS011;13354;48.174;11.566;2023-08-30T10:38:48;4.28;;;2.22;;
25419;SDS011;13354;48.174;11.566;2023-08-30T10:41:19;3.80;;;3.28;;
25419;SDS011;13354;48.174;11.566;2023-08-30T10:43:49;9.55;;;8.27;;
25419;SDS011;13354;48.174;11.566;2023-08-30T10:46:16;5.13;;;3.45;;
25419;SDS011;13354;48.174;11.566;2023-08-30T10:48:41;2.78;;;2.30;;
25419;SDS011;13354;48.174;11.566;2023-08-30T10:51:21;2.95;;;1.95;;
25419;SDS011;13354;48.174;11.566;2023-08-30T10:53:58;3.60;;;1.85;;
25419;SDS011;13354;48.174;11.566;2023-08-30T10:56:30;2.08;;;1.65;;
25419;SDS011;13354;48.174;11.566;2023-08-30T10:58:56;2.88;;;2.00;;
25419;SDS011;13354;48.174;11.566;2023-08-30T11:01:21;3.05;;;2.28;;
25419;SDS011;13354;48.174;11.566;2023-08-30T11:03:48;2.75;;;1.83;;
25419;SDS011;13354;48.174;11.566;2023-08-30T11:06:15;2.00;;;1.80;;
25419;SDS011;13354;48.174;11.566;2023-08-30T11:08:42;2.72;;;1.90;;
25419;SDS011;13354;48.174;11.566;2023-08-30T11:11:09;4.78;;;1.80;;
25419;SDS011;13354;48.174;11.566;2023-08-30T11:13:36;3.35;;;1.67;;
25419;SDS011;13354;48.174;11.566;2023-08-30T11:16:01;3.85;;;1.48;;
25419;SDS011;13354;48.174;11.566;2023-08-30T11:18:29;2.30;;;1.65;;
25419;SDS011;13354;48.174;11.566;2023-08-30T11:21:01;2.00;;;1.40;;
25419;SDS011;13354;48.174;11.566;2023-08-30T11:23:27;1.73;;;1.27;;
25419;SDS011;13354;48.174;11.566;2023-08-30T11:25:53;3.65;;;1.20;;
25419;SDS011;13354;48.174;11.566;2023-08-30T11:28:22;3.05;;;1.50;;
25419;SDS011;13354;48.174;11.566;2023-08-30T11:30:54;2.15;;;1.33;;
25419;SDS011;13354;48.174;11.566;2023-08-30T11:33:19;3.60;;;1.40;;
25419;SDS011;13354;48.174;11.566;2023-08-30T11:35:48;1.08;;;0.95;;
25419;SDS011;13354;48.174;11.566;2023-08-30T11:38:16;1.65;;;1.10;;
25419;SDS011;13354;48.174;11.566;2023-08-30T11:40:42;3.42;;;1.30;;
25419;SDS011;13354;48.174;11.566;2023-08-30T11:43:08;1.20;;;1.10;;
25419;SDS011;13354;48.174;11.566;2023-08-30T11:45:35;1.67;;;1.25;;
25419;SDS011;13354;48.174;11.566;2023-08-30T11:48:00;4.10;;;1.30;;
25419;SDS011;13354;48.174;11.566;2023-08-30T11:50:26;2.97;;;1.35;;
25419;SDS011;13354;48.174;11.566;2023-08-30T11:52:52;4.90;;;1.48;;
25419;SDS011;13354;48.174;11.566;2023-08-30T11:55:19;3.33;;;1.80;;
25419;SDS011;13354;48.174;11.566;2023-08-30T11:57:48;12.00;;;10.75;;
25419;SDS011;13354;48.174;11.566;2023-08-30T12:00:15;2.78;;;1.80;;
25419;SDS011;13354;48.174;11.566;2023-08-30T12:02:43;2.47;;;1.42;;
25419;SDS011;13354;48.174;11.566;2023-08-30T12:05:13;2.40;;;1.50;;
25419;SDS011;13354;48.174;11.566;2023-08-30T12:07:38;4.55;;;1.73;;
25419;SDS011;13354;48.174;11.566;2023-08-30T12:10:08;2.47;;;1.50;;
25419;SDS011;13354;48.174;11.566;2023-08-30T12:12:35;1.52;;;1.20;;
25419;SDS011;13354;48.174;11.566;2023-08-30T12:15:04;3.75;;;1.40;;
25419;SDS011;13354;48.174;11.566;2023-08-30T12:20:01;2.33;;;1.40;;
25419;SDS011;13354;48.174;11.566;2023-08-30T12:22:40;2.03;;;1.20;;
25419;SDS011;13354;48.174;11.566;2023-08-30T12:25:21;4.10;;;1.17;;
25419;SDS011;13354;48.174;11.566;2023-08-30T12:27:51;2.35;;;1.40;;
25419;SDS011;13354;48.174;11.566;2023-08-30T12:30:18;2.30;;;1.50;;
25419;SDS011;13354;48.174;11.566;2023-08-30T12:32:44;3.25;;;1.65;;
25419;SDS011;13354;48.174;11.566;2023-08-30T12:35:12;2.53;;;1.30;;
25419;SDS011;13354;48.174;11.566;2023-08-30T12:37:38;1.88;;;1.45;;
25419;SDS011;13354;48.174;11.566;2023-08-30T12:40:03;1.40;;;1.23;;
25419;SDS011;13354;48.174;11.566;2023-08-30T12:42:29;2.95;;;1.70;;
25419;SDS011;13354;48.174;11.566;2023-08-30T12:44:54;1.95;;;1.33;;
25419;SDS011;13354;48.174;11.566;2023-08-30T12:47:19;2.20;;;1.23;;
25419;SDS011;13354;48.174;11.566;2023-08-30T12:49:45;2.95;;;1.02;;
25419;SDS011;13354;48.174;11.566;2023-08-30T12:52:11;1.65;;;0.98;;
25419;SDS011;13354;48.174;11.566;2023-08-30T12:54:36;1.05;;;1.00;;
25419;SDS011;13354;48.174;11.566;2023-08-30T12:57:01;1.47;;;0.97;;
25419;SDS011;13354;48.174;11.566;2023-08-30T12:59:28;2.92;;;0.85;;
25419;SDS011;13354;48.174;11.566;2023-08-30T13:01:53;1.55;;;0.95;;
25419;SDS011;13354;48.174;11.566;2023-08-30T13:04:18;1.50;;;0.90;;
25419;SDS011;13354;48.174;11.566;2023-08-30T13:06:44;1.38;;;0.90;;
25419;SDS011;13354;48.174;11.566;2023-08-30T13:09:09;3.53;;;1.20;;
25419;SDS011;13354;48.174;11.566;2023-08-30T13:11:34;31.83;;;22.27;;
25419;SDS011;13354;48.174;11.566;2023-08-30T13:14:00;3.10;;;2.53;;
25419;SDS011;13354;48.174;11.566;2023-08-30T13:16:25;1.15;;;1.05;;
25419;SDS011;13354;48.174;11.566;2023-08-30T13:18:50;3.07;;;1.40;;
25419;SDS011;13354;48.174;11.566;2023-08-30T13:21:15;1.80;;;1.10;;
25419;SDS011;13354;48.174;11.566;2023-08-30T13:23:41;2.60;;;1.50;;
25419;SDS011;13354;48.174;11.566;2023-08-30T13:26:06;2.67;;;1.83;;
25419;SDS011;13354;48.174;11.566;2023-08-30T13:28:32;7.95;;;2.42;;
25419;SDS011;13354;48.174;11.566;2023-08-30T13:30:57;5.43;;;2.25;;
25419;SDS011;13354;48.174;11.566;2023-08-30T13:33:23;2.20;;;2.00;;
25419;SDS011;13354;48.174;11.566;2023-08-30T13:35:51;1.93;;;1.57;;
25419;SDS011;13354;48.174;11.566;2023-08-30T13:38:17;3.13;;;2.17;;
25419;SDS011;13354;48.174;11.566;2023-08-30T13:40:43;2.60;;;1.67;;
25419;SDS011;13354;48.174;11.566;2023-08-30T13:43:09;4.32;;;2.10;;
25419;SDS011;13354;48.174;11.566;2023-08-30T13:45:35;2.63;;;1.95;;
25419;SDS011;13354;48.174;11.566;2023-08-30T13:48:00;7.18;;;5.65;;
25419;SDS011;13354;48.174;11.566;2023-08-30T13:50:26;3.55;;;2.80;;
25419;SDS011;13354;48.174;11.566;2023-08-30T13:52:55;14.93;;;10.45;;
25419;SDS011;13354;48.174;11.566;2023-08-30T13:55:21;4.75;;;3.03;;
25419;SDS011;13354;48.174;11.566;2023-08-30T13:57:46;3.28;;;2.08;;
25419;SDS011;13354;48.174;11.566;2023-08-30T14:00:12;2.07;;;1.53;;
25419;SDS011;13354;48.174;11.566;2023-08-30T14:02:37;3.45;;;1.70;;
25419;SDS011;13354;48.174;11.566;2023-08-30T14:05:03;2.50;;;1.55;;
25419;SDS011;13354;48.174;11.566;2023-08-30T14:07:29;2.75;;;1.63;;
25419;SDS011;13354;48.174;11.566;2023-08-30T14:09:54;3.05;;;1.58;;
25419;SDS011;13354;48.174;11.566;2023-08-30T14:12:20;3.13;;;1.58;;
25419;SDS011;13354;48.174;11.566;2023-08-30T14:14:45;3.17;;;2.00;;
25419;SDS011;13354;48.174;11.566;2023-08-30T14:17:10;3.72;;;1.50;;
25419;SDS011;13354;48.174;11.566;2023-08-30T14:19:36;1.83;;;1.42;;
25419;SDS011;13354;48.174;11.566;2023-08-30T14:22:02;2.55;;;1.73;;
25419;SDS011;13354;48.174;11.566;2023-08-30T14:24:29;2.45;;;1.48;;
25419;SDS011;13354;48.174;11.566;2023-08-30T14:26:54;1.70;;;1.60;;
25419;SDS011;13354;48.174;11.566;2023-08-30T14:29:20;6.15;;;4.38;;
25419;SDS011;13354;48.174;11.566;2023-08-30T14:31:48;8.25;;;6.43;;